sensor_id;sensor_type;location;lat;lon;timestamp;pressure;altitude;pressure_sealevel;temperature;humidity
46199;BME280;31928;52.104;10.030;2023-03-19T00:01:47;100181.72;;;16.75;44.86
46199;BME280;31928;52.104;10.030;2023-03-19T00:04:14;100183.88;;;16.73;44.61
46199;BME280;31928;52.104;10.030;2023-03-19T00:06:42;100182.25;;;16.72;44.49
46199;BME280;31928;52.104;10.030;2023-03-19T00:09:09;100185.22;;;16.70;44.70
46199;BME280;31928;52.104;10.030;2023-03-19T00:11:35;100178.41;;;16.68;44.71
46199;BME280;31928;52.104;10.030;2023-03-19T00:14:02;100172.44;;;16.66;44.99
46199;BME280;31928;52.104;10.030;2023-03-19T00:16:29;100171.63;;;16.65;44.91
46199;BME280;31928;52.104;10.030;2023-03-19T00:18:55;100181.66;;;16.65;44.81
46199;BME280;31928;52.104;10.030;2023-03-19T00:21:22;100177.03;;;16.65;45.21
46199;BME280;31928;52.104;10.030;2023-03-19T00:23:51;100184.34;;;16.65;44.99
46199;BME280;31928;52.104;10.030;2023-03-19T00:26:18;100180.81;;;16.64;45.06
46199;BME280;31928;52.104;10.030;2023-03-19T00:28:44;100187.88;;;16.65;45.31
46199;BME280;31928;52.104;10.030;2023-03-19T00:31:12;100183.50;;;16.64;44.93
46199;BME280;31928;52.104;10.030;2023-03-19T00:33:39;100188.94;;;16.64;44.99
46199;BME280;31928;52.104;10.030;2023-03-19T00:36:06;100190.84;;;16.64;45.06
46199;BME280;31928;52.104;10.030;2023-03-19T00:38:33;100187.06;;;16.65;45.29
46199;BME280;31928;52.104;10.030;2023-03-19T00:41:01;100192.47;;;16.65;45.43
46199;BME280;31928;52.104;10.030;2023-03-19T00:43:28;100185.41;;;16.64;45.36
46199;BME280;31928;52.104;10.030;2023-03-19T00:45:54;100191.91;;;16.63;45.53
46199;BME280;31928;52.104;10.030;2023-03-19T00:48:21;100190.53;;;16.60;45.45
46199;BME280;31928;52.104;10.030;2023-03-19T00:50:48;100184.56;;;16.58;45.30
46199;BME280;31928;52.104;10.030;2023-03-19T00:53:14;100181.53;;;16.55;45.36
46199;BME280;31928;52.104;10.030;2023-03-19T00:55:41;100185.31;;;16.54;45.12
46199;BME280;31928;52.104;10.030;2023-03-19T00:58:08;100178.53;;;16.51;45.28
46199;BME280;31928;52.104;10.030;2023-03-19T01:00:36;100188.28;;;16.52;45.32
46199;BME280;31928;52.104;10.030;2023-03-19T01:03:04;100185.03;;;16.50;45.54
46199;BME280;31928;52.104;10.030;2023-03-19T01:05:33;100181.22;;;16.51;45.69
46199;BME280;31928;52.104;10.030;2023-03-19T01:08:00;100189.59;;;16.50;45.27
46199;BME280;31928;52.104;10.030;2023-03-19T01:10:26;100173.38;;;16.50;45.63
46199;BME280;31928;52.104;10.030;2023-03-19T01:12:53;100173.38;;;16.50;45.52
46199;BME280;31928;52.104;10.030;2023-03-19T01:15:19;100176.06;;;16.50;45.37
46199;BME280;31928;52.104;10.030;2023-03-19T01:17:45;100176.06;;;16.50;45.62
46199;BME280;31928;52.104;10.030;2023-03-19T01:20:12;100175.28;;;16.49;45.24
46199;BME280;31928;52.104;10.030;2023-03-19T01:22:40;100177.13;;;16.49;45.33
46199;BME280;31928;52.104;10.030;2023-03-19T01:25:08;100168.47;;;16.47;45.35
46199;BME280;31928;52.104;10.030;2023-03-19T01:27:38;100168.97;;;16.44;45.07
46199;BME280;31928;52.104;10.030;2023-03-19T01:30:05;100171.13;;;16.42;45.52
46199;BME280;31928;52.104;10.030;2023-03-19T01:32:32;100171.66;;;16.39;45.22
46199;BME280;31928;52.104;10.030;2023-03-19T01:34:59;100174.56;;;16.37;45.35
46199;BME280;31928;52.104;10.030;2023-03-19T01:37:25;100182.97;;;16.36;45.34
46199;BME280;31928;52.104;10.030;2023-03-19T01:39:52;100181.34;;;16.35;45.34
46199;BME280;31928;52.104;10.030;2023-03-19T01:42:18;100180.50;;;16.34;45.66
46199;BME280;31928;52.104;10.030;2023-03-19T01:44:44;100179.72;;;16.34;45.30
46199;BME280;31928;52.104;10.030;2023-03-19T01:47:15;100179.72;;;16.34;45.37
46199;BME280;31928;52.104;10.030;2023-03-19T01:49:42;100174.78;;;16.31;45.69
46199;BME280;31928;52.104;10.030;2023-03-19T01:52:10;100177.47;;;16.31;45.68
46199;BME280;31928;52.104;10.030;2023-03-19T01:54:38;100171.53;;;16.29;45.26
46199;BME280;31928;52.104;10.030;2023-03-19T01:57:06;100171.78;;;16.27;45.64
46199;BME280;31928;52.104;10.030;2023-03-19T01:59:35;100178.25;;;16.26;45.70
46199;BME280;31928;52.104;10.030;2023-03-19T02:02:10;100166.63;;;16.26;45.67
46199;BME280;31928;52.104;10.030;2023-03-19T02:04:40;100174.41;;;16.23;45.63
46199;BME280;31928;52.104;10.030;2023-03-19T02:07:08;100170.88;;;16.22;45.77
46199;BME280;31928;52.104;10.030;2023-03-19T02:09:36;100175.72;;;16.20;45.51
46199;BME280;31928;52.104;10.030;2023-03-19T02:12:04;100174.09;;;16.19;45.40
46199;BME280;31928;52.104;10.030;2023-03-19T02:14:30;100183.53;;;16.17;45.64
46199;BME280;31928;52.104;10.030;2023-03-19T02:16:56;100188.13;;;16.16;45.75
46199;BME280;31928;52.104;10.030;2023-03-19T02:19:38;100191.91;;;16.15;45.45
46199;BME280;31928;52.104;10.030;2023-03-19T02:22:07;100186.16;;;16.12;45.71
46199;BME280;31928;52.104;10.030;2023-03-19T02:24:36;100184.56;;;16.11;45.35
46199;BME280;31928;52.104;10.030;2023-03-19T02:27:05;100179.63;;;16.08;45.63
46199;BME280;31928;52.104;10.030;2023-03-19T02:29:33;100175.53;;;16.05;45.31
46199;BME280;31928;52.104;10.030;2023-03-19T02:31:59;100176.06;;;16.02;45.46
46199;BME280;31928;52.104;10.030;2023-03-19T02:34:31;100180.34;;;15.98;45.52
46199;BME280;31928;52.104;10.030;2023-03-19T02:37:00;100186.25;;;15.95;45.71
46199;BME280;31928;52.104;10.030;2023-03-19T02:39:30;100182.38;;;15.91;45.45
46199;BME280;31928;52.104;10.030;2023-03-19T02:41:58;100183.16;;;15.87;45.84
46199;BME280;31928;52.104;10.030;2023-03-19T02:44:26;100172.03;;;15.83;45.59
46199;BME280;31928;52.104;10.030;2023-03-19T02:46:52;100176.88;;;15.81;45.78
46199;BME280;31928;52.104;10.030;2023-03-19T02:49:18;100177.94;;;15.80;46.05
46199;BME280;31928;52.104;10.030;2023-03-19T02:51:45;100186.06;;;15.80;45.72
46199;BME280;31928;52.104;10.030;2023-03-19T02:54:11;100187.94;;;15.80;45.93
46199;BME280;31928;52.104;10.030;2023-03-19T02:56:38;100189.56;;;15.81;46.04
46199;BME280;31928;52.104;10.030;2023-03-19T02:59:04;100177.94;;;15.80;46.18
46199;BME280;31928;52.104;10.030;2023-03-19T03:01:31;100181.22;;;15.82;46.13
46199;BME280;31928;52.104;10.030;2023-03-19T03:03:58;100184.47;;;15.84;46.04
46199;BME280;31928;52.104;10.030;2023-03-19T03:06:25;100180.13;;;15.83;46.20
46199;BME280;31928;52.104;10.030;2023-03-19T03:08:51;100183.69;;;15.84;46.02
46199;BME280;31928;52.104;10.030;2023-03-19T03:11:18;100190.41;;;15.81;45.83
46199;BME280;31928;52.104;10.030;2023-03-19T03:13:45;100193.34;;;15.80;45.83
46199;BME280;31928;52.104;10.030;2023-03-19T03:16:11;100191.97;;;15.77;45.49
46199;BME280;31928;52.104;10.030;2023-03-19T03:18:38;100188.13;;;15.73;45.75
46199;BME280;31928;52.104;10.030;2023-03-19T03:21:04;100185.91;;;15.70;45.59
46199;BME280;31928;52.104;10.030;2023-03-19T03:23:30;100189.13;;;15.67;45.63
46199;BME280;31928;52.104;10.030;2023-03-19T03:25:57;100188.00;;;15.63;45.90
46199;BME280;31928;52.104;10.030;2023-03-19T03:28:23;100193.91;;;15.61;45.83
46199;BME280;31928;52.104;10.030;2023-03-19T03:30:50;100193.31;;;15.59;45.88
46199;BME280;31928;52.104;10.030;2023-03-19T03:33:16;100191.13;;;15.56;46.04
46199;BME280;31928;52.104;10.030;2023-03-19T03:35:43;100191.59;;;15.53;45.96
46199;BME280;31928;52.104;10.030;2023-03-19T03:38:10;100192.09;;;15.50;46.32
46199;BME280;31928;52.104;10.030;2023-03-19T03:40:36;100191.53;;;15.48;46.40
46199;BME280;31928;52.104;10.030;2023-03-19T03:43:03;100188.81;;;15.48;46.50
46199;BME280;31928;52.104;10.030;2023-03-19T03:45:29;100198.03;;;15.47;46.11
46199;BME280;31928;52.104;10.030;2023-03-19T03:47:56;100195.88;;;15.49;46.16
46199;BME280;31928;52.104;10.030;2023-03-19T03:50:23;100198.56;;;15.49;46.10
46199;BME280;31928;52.104;10.030;2023-03-19T03:52:49;100202.91;;;15.50;46.50
46199;BME280;31928;52.104;10.030;2023-03-19T03:55:15;100202.91;;;15.50;46.40
46199;BME280;31928;52.104;10.030;2023-03-19T03:57:42;100207.75;;;15.48;46.28
46199;BME280;31928;52.104;10.030;2023-03-19T04:00:09;100208.00;;;15.46;45.74
46199;BME280;31928;52.104;10.030;2023-03-19T04:02:36;100203.91;;;15.44;45.75
46199;BME280;31928;52.104;10.030;2023-03-19T04:05:02;100197.34;;;15.40;45.83
46199;BME280;31928;52.104;10.030;2023-03-19T04:07:29;100197.88;;;15.37;46.15
46199;BME280;31928;52.104;10.030;2023-03-19T04:09:56;100191.06;;;15.34;46.20
46199;BME280;31928;52.104;10.030;2023-03-19T04:12:22;100198.59;;;15.32;45.89
46199;BME280;31928;52.104;10.030;2023-03-19T04:14:49;100199.34;;;15.28;45.94
46199;BME280;31928;52.104;10.030;2023-03-19T04:17:15;100199.34;;;15.28;46.16
46199;BME280;31928;52.104;10.030;2023-03-19T04:19:42;100204.66;;;15.23;45.88
46199;BME280;31928;52.104;10.030;2023-03-19T04:22:09;100200.78;;;15.19;45.94
46199;BME280;31928;52.104;10.030;2023-03-19T04:24:35;100198.84;;;15.14;45.78
46199;BME280;31928;52.104;10.030;2023-03-19T04:27:02;100193.09;;;15.11;45.99
46199;BME280;31928;52.104;10.030;2023-03-19T04:29:28;100190.31;;;15.06;45.78
46199;BME280;31928;52.104;10.030;2023-03-19T04:31:55;100196.69;;;15.00;46.07
46199;BME280;31928;52.104;10.030;2023-03-19T04:34:21;100193.09;;;14.95;46.35
46199;BME280;31928;52.104;10.030;2023-03-19T04:36:48;100192.22;;;14.89;46.05
46199;BME280;31928;52.104;10.030;2023-03-19T04:39:15;100192.13;;;14.84;46.07
46199;BME280;31928;52.104;10.030;2023-03-19T04:41:41;100194.22;;;14.82;46.64
46199;BME280;31928;52.104;10.030;2023-03-19T04:44:08;100189.34;;;14.79;46.35
46199;BME280;31928;52.104;10.030;2023-03-19T04:46:34;100194.72;;;14.79;46.68
46199;BME280;31928;52.104;10.030;2023-03-19T04:49:01;100198.47;;;14.78;46.80
46199;BME280;31928;52.104;10.030;2023-03-19T04:51:28;100199.31;;;14.79;46.57
46199;BME280;31928;52.104;10.030;2023-03-19T04:53:54;100196.63;;;14.79;46.66
46199;BME280;31928;52.104;10.030;2023-03-19T04:56:20;100194.16;;;14.77;46.66
46199;BME280;31928;52.104;10.030;2023-03-19T04:58:47;100195.78;;;14.78;46.86
46199;BME280;31928;52.104;10.030;2023-03-19T05:01:14;100200.63;;;14.76;46.56
46199;BME280;31928;52.104;10.030;2023-03-19T05:03:40;100195.22;;;14.76;46.55
46199;BME280;31928;52.104;10.030;2023-03-19T05:06:07;100197.34;;;14.74;46.50
46199;BME280;31928;52.104;10.030;2023-03-19T05:08:33;100206.72;;;14.72;46.35
46199;BME280;31928;52.104;10.030;2023-03-19T05:11:00;100210.72;;;14.69;46.63
46199;BME280;31928;52.104;10.030;2023-03-19T05:13:27;100207.47;;;14.67;46.46
46199;BME280;31928;52.104;10.030;2023-03-19T05:15:53;100195.03;;;14.66;46.57
46199;BME280;31928;52.104;10.030;2023-03-19T05:18:20;100207.94;;;14.64;46.88
46199;BME280;31928;52.104;10.030;2023-03-19T05:20:47;100203.88;;;14.62;46.76
46199;BME280;31928;52.104;10.030;2023-03-19T05:23:13;100211.13;;;14.61;46.55
46199;BME280;31928;52.104;10.030;2023-03-19T05:28:10;100217.28;;;14.57;46.87
46199;BME280;31928;52.104;10.030;2023-03-19T05:30:37;100222.91;;;14.55;46.54
46199;BME280;31928;52.104;10.030;2023-03-19T05:33:04;100223.97;;;14.54;46.65
46199;BME280;31928;52.104;10.030;2023-03-19T05:35:31;100218.22;;;14.51;46.55
46199;BME280;31928;52.104;10.030;2023-03-19T05:37:58;100215.44;;;14.46;46.58
46199;BME280;31928;52.104;10.030;2023-03-19T05:40:24;100210.78;;;14.42;46.68
46199;BME280;31928;52.104;10.030;2023-03-19T05:42:51;100212.53;;;14.36;46.62
46199;BME280;31928;52.104;10.030;2023-03-19T05:45:17;100218.66;;;14.32;46.47
46199;BME280;31928;52.104;10.030;2023-03-19T05:47:45;100228.28;;;14.28;46.82
46199;BME280;31928;52.104;10.030;2023-03-19T05:50:12;100226.31;;;14.23;46.77
46199;BME280;31928;52.104;10.030;2023-03-19T05:52:38;100225.38;;;14.18;46.38
46199;BME280;31928;52.104;10.030;2023-03-19T05:55:05;100227.97;;;14.13;46.53
46199;BME280;31928;52.104;10.030;2023-03-19T05:57:32;100223.31;;;14.08;46.50
46199;BME280;31928;52.104;10.030;2023-03-19T05:59:58;100237.47;;;14.04;46.48
46199;BME280;31928;52.104;10.030;2023-03-19T06:02:25;100233.84;;;13.98;46.90
46199;BME280;31928;52.104;10.030;2023-03-19T06:04:51;100233.50;;;13.95;47.04
46199;BME280;31928;52.104;10.030;2023-03-19T06:07:18;100234.00;;;13.92;46.94
46199;BME280;31928;52.104;10.030;2023-03-19T06:09:44;100229.41;;;13.92;47.25
46199;BME280;31928;52.104;10.030;2023-03-19T06:12:11;100234.00;;;13.92;46.89
46199;BME280;31928;52.104;10.030;2023-03-19T06:14:37;100241.47;;;13.90;47.22
46199;BME280;31928;52.104;10.030;2023-03-19T06:17:03;100252.25;;;13.90;47.17
46199;BME280;31928;52.104;10.030;2023-03-19T06:19:30;100251.69;;;13.88;47.14
46199;BME280;31928;52.104;10.030;2023-03-19T06:21:57;100247.59;;;13.85;46.96
46199;BME280;31928;52.104;10.030;2023-03-19T06:24:23;100253.22;;;13.84;47.18
46199;BME280;31928;52.104;10.030;2023-03-19T06:26:50;100251.56;;;13.83;47.01
46199;BME280;31928;52.104;10.030;2023-03-19T06:29:16;100252.88;;;13.80;47.32
46199;BME280;31928;52.104;10.030;2023-03-19T06:31:43;100250.41;;;13.79;47.33
46199;BME280;31928;52.104;10.030;2023-03-19T06:34:09;100262.00;;;13.79;47.42
46199;BME280;31928;52.104;10.030;2023-03-19T06:36:36;100271.97;;;13.79;47.46
46199;BME280;31928;52.104;10.030;2023-03-19T06:39:03;100263.63;;;13.80;47.85
46199;BME280;31928;52.104;10.030;2023-03-19T06:41:29;100265.66;;;13.85;47.54
46199;BME280;31928;52.104;10.030;2023-03-19T06:43:56;100274.28;;;13.87;47.78
46199;BME280;31928;52.104;10.030;2023-03-19T06:46:22;100272.19;;;13.89;47.99
46199;BME280;31928;52.104;10.030;2023-03-19T06:48:49;100281.22;;;13.94;47.89
46199;BME280;31928;52.104;10.030;2023-03-19T06:51:15;100281.56;;;13.98;48.03
46199;BME280;31928;52.104;10.030;2023-03-19T06:53:42;100281.06;;;14.01;47.99
46199;BME280;31928;52.104;10.030;2023-03-19T06:56:08;100287.19;;;14.08;48.06
46199;BME280;31928;52.104;10.030;2023-03-19T06:58:35;100287.53;;;14.11;48.31
46199;BME280;31928;52.104;10.030;2023-03-19T07:01:02;100294.09;;;14.15;48.11
46199;BME280;31928;52.104;10.030;2023-03-19T07:03:29;100301.47;;;14.20;48.36
46199;BME280;31928;52.104;10.030;2023-03-19T07:05:55;100309.69;;;14.25;48.31
46199;BME280;31928;52.104;10.030;2023-03-19T07:08:31;100317.03;;;14.29;48.34
46199;BME280;31928;52.104;10.030;2023-03-19T07:11:04;100311.41;;;14.31;47.92
46199;BME280;31928;52.104;10.030;2023-03-19T07:13:31;100315.25;;;14.35;47.98
46199;BME280;31928;52.104;10.030;2023-03-19T07:15:58;100326.88;;;14.35;48.26
46199;BME280;31928;52.104;10.030;2023-03-19T07:18:25;100321.81;;;14.39;48.30
46199;BME280;31928;52.104;10.030;2023-03-19T07:20:53;100322.66;;;14.39;48.14
46199;BME280;31928;52.104;10.030;2023-03-19T07:23:19;100323.81;;;14.43;48.14
46199;BME280;31928;52.104;10.030;2023-03-19T07:25:46;100333.31;;;14.45;48.51
46199;BME280;31928;52.104;10.030;2023-03-19T07:28:13;100336.13;;;14.50;48.49
46199;BME280;31928;52.104;10.030;2023-03-19T07:30:40;100338.31;;;14.53;48.45
46199;BME280;31928;52.104;10.030;2023-03-19T07:33:07;100339.25;;;14.59;48.36
46199;BME280;31928;52.104;10.030;2023-03-19T07:35:34;100339.59;;;14.62;48.60
46199;BME280;31928;52.104;10.030;2023-03-19T07:38:00;100335.34;;;14.66;48.63
46199;BME280;31928;52.104;10.030;2023-03-19T07:40:27;100333.81;;;14.70;48.84
46199;BME280;31928;52.104;10.030;2023-03-19T07:42:54;100346.81;;;14.73;49.40
46199;BME280;31928;52.104;10.030;2023-03-19T07:45:20;100340.97;;;14.76;48.81
46199;BME280;31928;52.104;10.030;2023-03-19T07:47:48;100343.16;;;14.79;49.40
46199;BME280;31928;52.104;10.030;2023-03-19T07:50:15;100338.34;;;14.81;49.79
46199;BME280;31928;52.104;10.030;2023-03-19T07:52:44;100339.16;;;14.82;50.23
46199;BME280;31928;52.104;10.030;2023-03-19T07:55:10;100337.88;;;14.84;49.48
46199;BME280;31928;52.104;10.030;2023-03-19T07:57:37;100335.16;;;14.84;49.31
46199;BME280;31928;52.104;10.030;2023-03-19T08:00:04;100321.69;;;14.84;49.47
46199;BME280;31928;52.104;10.030;2023-03-19T08:02:31;100323.31;;;14.85;49.23
46199;BME280;31928;52.104;10.030;2023-03-19T08:04:57;100313.91;;;14.88;49.53
46199;BME280;31928;52.104;10.030;2023-03-19T08:07:31;100313.69;;;14.89;49.26
46199;BME280;31928;52.104;10.030;2023-03-19T08:09:57;100305.09;;;14.92;49.14
46199;BME280;31928;52.104;10.030;2023-03-19T08:12:24;100298.63;;;14.93;49.61
46199;BME280;31928;52.104;10.030;2023-03-19T08:14:51;100311.16;;;14.99;49.57
46199;BME280;31928;52.104;10.030;2023-03-19T08:17:17;100325.81;;;15.03;49.67
46199;BME280;31928;52.104;10.030;2023-03-19T08:19:44;100328.63;;;15.08;50.03
46199;BME280;31928;52.104;10.030;2023-03-19T08:22:11;100325.50;;;15.16;49.81
46199;BME280;31928;52.104;10.030;2023-03-19T08:24:38;100325.16;;;15.24;49.77
46199;BME280;31928;52.104;10.030;2023-03-19T08:27:04;100326.94;;;15.35;50.22
46199;BME280;31928;52.104;10.030;2023-03-19T08:29:31;100323.44;;;15.51;50.04
46199;BME280;31928;52.104;10.030;2023-03-19T08:31:59;100322.63;;;15.66;50.25
46199;BME280;31928;52.104;10.030;2023-03-19T08:34:26;100319.66;;;15.84;50.16
46199;BME280;31928;52.104;10.030;2023-03-19T08:36:53;100319.72;;;16.06;50.55
46199;BME280;31928;52.104;10.030;2023-03-19T08:39:19;100323.53;;;16.26;50.29
46199;BME280;31928;52.104;10.030;2023-03-19T08:41:46;100309.19;;;16.47;50.40
46199;BME280;31928;52.104;10.030;2023-03-19T08:44:12;100314.34;;;16.70;50.45
46199;BME280;31928;52.104;10.030;2023-03-19T08:46:39;100324.88;;;16.92;50.84
46199;BME280;31928;52.104;10.030;2023-03-19T08:49:05;100318.63;;;17.13;50.50
46199;BME280;31928;52.104;10.030;2023-03-19T08:51:32;100323.69;;;17.31;49.58
46199;BME280;31928;52.104;10.030;2023-03-19T08:53:58;100321.09;;;17.46;49.03
46199;BME280;31928;52.104;10.030;2023-03-19T08:56:25;100317.41;;;17.57;49.13
46199;BME280;31928;52.104;10.030;2023-03-19T08:58:51;100324.28;;;17.69;49.05
46199;BME280;31928;52.104;10.030;2023-03-19T09:01:18;100324.09;;;17.81;49.29
46199;BME280;31928;52.104;10.030;2023-03-19T09:03:44;100314.97;;;17.92;48.76
46199;BME280;31928;52.104;10.030;2023-03-19T09:06:11;100323.72;;;18.04;48.90
46199;BME280;31928;52.104;10.030;2023-03-19T09:08:39;100323.78;;;18.13;48.81
46199;BME280;31928;52.104;10.030;2023-03-19T09:11:06;100322.78;;;18.24;48.56
46199;BME280;31928;52.104;10.030;2023-03-19T09:13:33;100321.75;;;18.35;48.82
46199;BME280;31928;52.104;10.030;2023-03-19T09:15:59;100328.03;;;18.46;48.66
46199;BME280;31928;52.104;10.030;2023-03-19T09:18:27;100337.84;;;18.57;48.76
46199;BME280;31928;52.104;10.030;2023-03-19T09:20:54;100336.81;;;18.67;48.45
46199;BME280;31928;52.104;10.030;2023-03-19T09:23:20;100330.59;;;18.77;48.38
46199;BME280;31928;52.104;10.030;2023-03-19T09:25:47;100329.00;;;18.86;48.06
46199;BME280;31928;52.104;10.030;2023-03-19T09:28:14;100332.03;;;18.94;48.07
46199;BME280;31928;52.104;10.030;2023-03-19T09:30:41;100325.78;;;19.04;47.89
46199;BME280;31928;52.104;10.030;2023-03-19T09:33:08;100330.47;;;19.13;47.93
46199;BME280;31928;52.104;10.030;2023-03-19T09:35:35;100331.03;;;19.20;48.10
46199;BME280;31928;52.104;10.030;2023-03-19T09:38:03;100324.25;;;19.32;48.03
46199;BME280;31928;52.104;10.030;2023-03-19T09:40:37;100326.69;;;19.44;48.03
46199;BME280;31928;52.104;10.030;2023-03-19T09:45:43;100337.31;;;19.70;47.85
46199;BME280;31928;52.104;10.030;2023-03-19T09:48:12;100325.88;;;19.83;47.84
46199;BME280;31928;52.104;10.030;2023-03-19T09:50:39;100326.44;;;20.00;47.79
46199;BME280;31928;52.104;10.030;2023-03-19T09:55:42;100331.81;;;20.30;47.73
46199;BME280;31928;52.104;10.030;2023-03-19T09:58:12;100330.13;;;20.44;47.35
46199;BME280;31928;52.104;10.030;2023-03-19T10:00:39;100330.63;;;20.55;46.79
46199;BME280;31928;52.104;10.030;2023-03-19T10:03:24;100332.22;;;20.66;46.82
46199;BME280;31928;52.104;10.030;2023-03-19T10:08:50;100332.22;;;20.76;46.26
46199;BME280;31928;52.104;10.030;2023-03-19T10:11:43;100332.44;;;20.80;46.04
46199;BME280;31928;52.104;10.030;2023-03-19T10:17:01;100333.28;;;20.80;45.17
46199;BME280;31928;52.104;10.030;2023-03-19T10:22:34;100330.00;;;20.78;45.12
46199;BME280;31928;52.104;10.030;2023-03-19T10:25:01;100336.56;;;20.77;44.95
46199;BME280;31928;52.104;10.030;2023-03-19T10:27:28;100333.81;;;20.77;44.60
46199;BME280;31928;52.104;10.030;2023-03-19T10:29:55;100333.31;;;20.75;44.92
46199;BME280;31928;52.104;10.030;2023-03-19T10:32:31;100331.38;;;20.76;44.68
46199;BME280;31928;52.104;10.030;2023-03-19T10:35:01;100332.75;;;20.73;44.73
46199;BME280;31928;52.104;10.030;2023-03-19T10:37:32;100321.88;;;20.68;45.00
46199;BME280;31928;52.104;10.030;2023-03-19T10:39:59;100330.06;;;20.68;45.02
46199;BME280;31928;52.104;10.030;2023-03-19T10:47:44;100326.22;;;20.74;45.22
46199;BME280;31928;52.104;10.030;2023-03-19T10:50:45;100328.38;;;20.77;44.88
46199;BME280;31928;52.104;10.030;2023-03-19T10:55:36;100330.53;;;20.85;44.75
46199;BME280;31928;52.104;10.030;2023-03-19T10:58:13;100324.53;;;20.88;45.02
46199;BME280;31928;52.104;10.030;2023-03-19T11:00:46;100336.22;;;20.94;44.64
46199;BME280;31928;52.104;10.030;2023-03-19T11:03:48;100333.75;;;20.97;44.46
46199;BME280;31928;52.104;10.030;2023-03-19T11:08:33;100335.84;;;21.10;44.20
46199;BME280;31928;52.104;10.030;2023-03-19T11:11:01;100339.06;;;21.17;44.09
46199;BME280;31928;52.104;10.030;2023-03-19T11:13:27;100340.97;;;21.21;43.55
46199;BME280;31928;52.104;10.030;2023-03-19T11:15:56;100347.72;;;21.29;43.85
46199;BME280;31928;52.104;10.030;2023-03-19T11:18:28;100341.72;;;21.32;43.84
46199;BME280;31928;52.104;10.030;2023-03-19T11:20:59;100345.50;;;21.36;43.74
46199;BME280;31928;52.104;10.030;2023-03-19T11:23:29;100344.66;;;21.40;43.66
46199;BME280;31928;52.104;10.030;2023-03-19T11:25:59;100335.09;;;21.43;43.66
46199;BME280;31928;52.104;10.030;2023-03-19T11:28:29;100334.81;;;21.44;42.45
46199;BME280;31928;52.104;10.030;2023-03-19T11:33:36;100333.44;;;21.47;41.79
46199;BME280;31928;52.104;10.030;2023-03-19T11:36:07;100339.97;;;21.51;43.25
46199;BME280;31928;52.104;10.030;2023-03-19T11:41:29;100332.56;;;21.56;43.81
46199;BME280;31928;52.104;10.030;2023-03-19T11:44:04;100335.53;;;21.60;43.63
46199;BME280;31928;52.104;10.030;2023-03-19T11:51:45;100339.22;;;21.73;43.61
46199;BME280;31928;52.104;10.030;2023-03-19T11:59:12;100324.75;;;21.73;42.58
46199;BME280;31928;52.104;10.030;2023-03-19T12:07:20;100327.56;;;21.63;42.52
46199;BME280;31928;52.104;10.030;2023-03-19T12:10:06;100327.91;;;21.57;42.53
46199;BME280;31928;52.104;10.030;2023-03-19T12:12:44;100322.47;;;21.52;42.61
46199;BME280;31928;52.104;10.030;2023-03-19T12:15:49;100330.97;;;21.45;42.88
46199;BME280;31928;52.104;10.030;2023-03-19T12:18:09;100328.53;;;21.39;42.71
46199;BME280;31928;52.104;10.030;2023-03-19T12:23:35;100334.63;;;21.31;42.96
46199;BME280;31928;52.104;10.030;2023-03-19T12:26:05;100333.25;;;21.28;42.88
46199;BME280;31928;52.104;10.030;2023-03-19T12:28:35;100339.00;;;21.27;43.07
46199;BME280;31928;52.104;10.030;2023-03-19T12:33:41;100342.56;;;21.27;43.27
46199;BME280;31928;52.104;10.030;2023-03-19T12:36:12;100331.91;;;21.26;42.84
46199;BME280;31928;52.104;10.030;2023-03-19T12:38:43;100328.66;;;21.24;42.59
46199;BME280;31928;52.104;10.030;2023-03-19T12:41:17;100329.75;;;21.23;43.08
46199;BME280;31928;52.104;10.030;2023-03-19T12:43:47;100320.78;;;21.22;42.96
46199;BME280;31928;52.104;10.030;2023-03-19T12:46:19;100327.91;;;21.18;42.53
46199;BME280;31928;52.104;10.030;2023-03-19T12:48:52;100320.53;;;21.19;43.03
46199;BME280;31928;52.104;10.030;2023-03-19T12:51:23;100320.53;;;21.19;43.10
46199;BME280;31928;52.104;10.030;2023-03-19T12:53:55;100318.31;;;21.21;43.37
46199;BME280;31928;52.104;10.030;2023-03-19T13:01:43;100316.13;;;21.23;42.64
46199;BME280;31928;52.104;10.030;2023-03-19T13:04:13;100311.22;;;21.25;42.94
46199;BME280;31928;52.104;10.030;2023-03-19T13:07:17;100311.72;;;21.27;42.96
46199;BME280;31928;52.104;10.030;2023-03-19T13:09:35;100306.28;;;21.27;42.92
46199;BME280;31928;52.104;10.030;2023-03-19T13:12:11;100310.09;;;21.26;42.19
46199;BME280;31928;52.104;10.030;2023-03-19T13:14:55;100315.00;;;21.29;42.69
46199;BME280;31928;52.104;10.030;2023-03-19T13:19:54;100307.13;;;21.27;41.88
46199;BME280;31928;52.104;10.030;2023-03-19T13:22:24;100304.38;;;21.27;41.88
46199;BME280;31928;52.104;10.030;2023-03-19T13:24:53;100310.66;;;21.28;42.08
46199;BME280;31928;52.104;10.030;2023-03-19T13:27:30;100307.91;;;21.28;42.01
46199;BME280;31928;52.104;10.030;2023-03-19T13:30:05;100308.72;;;21.28;41.29
46199;BME280;31928;52.104;10.030;2023-03-19T13:37:45;100304.09;;;21.29;41.11
46199;BME280;31928;52.104;10.030;2023-03-19T13:42:58;100308.44;;;21.30;41.98
46199;BME280;31928;52.104;10.030;2023-03-19T13:47:55;100312.25;;;21.34;42.00
46199;BME280;31928;52.104;10.030;2023-03-19T13:52:51;100304.00;;;21.39;42.36
46199;BME280;31928;52.104;10.030;2023-03-19T13:57:54;100311.59;;;21.47;42.51
46199;BME280;31928;52.104;10.030;2023-03-19T14:03:26;100312.38;;;21.57;42.45
46199;BME280;31928;52.104;10.030;2023-03-19T14:05:54;100314.22;;;21.62;42.29